sensor_id;sensor_type;location;lat;lon;timestamp;pressure;altitude;pressure_sealevel;temperature;humidity
10462;BME280;5278;42.656;23.374;2024-01-27T00:01:07;95094.47;;;5.70;68.03
10462;BME280;5278;42.656;23.374;2024-01-27T00:03:35;95087.41;;;5.72;68.01
10462;BME280;5278;42.656;23.374;2024-01-27T00:06:02;95086.06;;;5.78;67.74
10462;BME280;5278;42.656;23.374;2024-01-27T00:08:29;95081.47;;;5.81;67.49
10462;BME280;5278;42.656;23.374;2024-01-27T00:10:56;95086.31;;;5.75;67.59
10462;BME280;5278;42.656;23.374;2024-01-27T00:13:23;95083.88;;;5.73;67.45
10462;BME280;5278;42.656;23.374;2024-01-27T00:15:51;95087.41;;;5.72;67.48
10462;BME280;5278;42.656;23.374;2024-01-27T00:18:20;95089.81;;;5.64;67.62
10462;BME280;5278;42.656;23.374;2024-01-27T00:20:48;95077.06;;;5.53;68.07
10462;BME280;5278;42.656;23.374;2024-01-27T00:23:15;95076.25;;;5.52;68.50
10462;BME280;5278;42.656;23.374;2024-01-27T00:25:42;95069.50;;;5.61;68.48
10462;BME280;5278;42.656;23.374;2024-01-27T00:28:08;95074.34;;;5.54;68.23
10462;BME280;5278;42.656;23.374;2024-01-27T00:30:35;95073.53;;;5.54;68.91
10462;BME280;5278;42.656;23.374;2024-01-27T00:33:02;95083.31;;;5.60;68.94
10462;BME280;5278;42.656;23.374;2024-01-27T00:35:29;95063.09;;;5.55;69.25
10462;BME280;5278;42.656;23.374;2024-01-27T00:37:58;95084.94;;;5.61;69.36
10462;BME280;5278;42.656;23.374;2024-01-27T00:40:25;95077.09;;;5.62;69.05
10462;BME280;5278;42.656;23.374;2024-01-27T00:42:52;95073.94;;;5.59;69.06
10462;BME280;5278;42.656;23.374;2024-01-27T00:45:20;95072.19;;;5.59;68.72
10462;BME280;5278;42.656;23.374;2024-01-27T00:47:50;95066.38;;;5.67;68.52
10462;BME280;5278;42.656;23.374;2024-01-27T00:50:17;95083.44;;;5.68;68.16
10462;BME280;5278;42.656;23.374;2024-01-27T00:52:44;95074.53;;;5.72;67.99
10462;BME280;5278;42.656;23.374;2024-01-27T00:55:12;95081.44;;;5.72;67.88
10462;BME280;5278;42.656;23.374;2024-01-27T00:57:39;95071.69;;;5.75;67.77
10462;BME280;5278;42.656;23.374;2024-01-27T01:00:07;95068.69;;;5.80;67.60
10462;BME280;5278;42.656;23.374;2024-01-27T01:02:35;95063.81;;;5.86;67.08
10462;BME280;5278;42.656;23.374;2024-01-27T01:05:03;95061.81;;;5.90;66.99
10462;BME280;5278;42.656;23.374;2024-01-27T01:07:31;95063.56;;;5.99;66.73
10462;BME280;5278;42.656;23.374;2024-01-27T01:09:59;95019.84;;;5.69;66.63
10462;BME280;5278;42.656;23.374;2024-01-27T01:12:27;95053.25;;;5.89;66.87
10462;BME280;5278;42.656;23.374;2024-01-27T01:14:54;95061.16;;;5.97;66.61
10462;BME280;5278;42.656;23.374;2024-01-27T01:17:21;95060.41;;;5.76;67.22
10462;BME280;5278;42.656;23.374;2024-01-27T01:19:48;95074.81;;;5.88;68.09
10462;BME280;5278;42.656;23.374;2024-01-27T01:22:15;95063.00;;;5.76;68.68
10462;BME280;5278;42.656;23.374;2024-01-27T01:24:42;95067.63;;;5.73;69.53
10462;BME280;5278;42.656;23.374;2024-01-27T01:27:09;95058.50;;;5.59;70.10
10462;BME280;5278;42.656;23.374;2024-01-27T01:29:37;95055.91;;;5.49;70.67
10462;BME280;5278;42.656;23.374;2024-01-27T01:32:05;95054.28;;;5.58;71.19
10462;BME280;5278;42.656;23.374;2024-01-27T01:34:31;95053.72;;;5.54;71.36
10462;BME280;5278;42.656;23.374;2024-01-27T01:36:59;95051.16;;;5.54;71.41
10462;BME280;5278;42.656;23.374;2024-01-27T01:39:27;95047.09;;;5.52;71.78
10462;BME280;5278;42.656;23.374;2024-01-27T01:41:55;95048.44;;;5.46;71.68
10462;BME280;5278;42.656;23.374;2024-01-27T01:44:29;95047.22;;;5.50;71.23
10462;BME280;5278;42.656;23.374;2024-01-27T01:46:58;95049.41;;;5.55;71.12
10462;BME280;5278;42.656;23.374;2024-01-27T01:49:25;95040.72;;;5.56;71.00
10462;BME280;5278;42.656;23.374;2024-01-27T01:51:52;95039.22;;;5.63;70.27
10462;BME280;5278;42.656;23.374;2024-01-27T01:54:20;95025.00;;;5.59;70.17
10462;BME280;5278;42.656;23.374;2024-01-27T01:56:53;95041.81;;;5.63;69.33
10462;BME280;5278;42.656;23.374;2024-01-27T01:59:20;95040.75;;;5.66;69.30
10462;BME280;5278;42.656;23.374;2024-01-27T02:01:46;95038.97;;;5.66;69.43
10462;BME280;5278;42.656;23.374;2024-01-27T02:04:15;95033.97;;;5.74;69.38
10462;BME280;5278;42.656;23.374;2024-01-27T02:06:42;95034.91;;;5.73;69.04
10462;BME280;5278;42.656;23.374;2024-01-27T02:09:09;95036.94;;;5.79;69.05
10462;BME280;5278;42.656;23.374;2024-01-27T02:11:36;95022.41;;;5.78;68.92
10462;BME280;5278;42.656;23.374;2024-01-27T02:14:03;95021.06;;;5.84;68.60
10462;BME280;5278;42.656;23.374;2024-01-27T02:16:30;95016.22;;;5.90;67.93
10462;BME280;5278;42.656;23.374;2024-01-27T02:18:57;95012.00;;;5.99;67.65
10462;BME280;5278;42.656;23.374;2024-01-27T02:21:26;94941.88;;;5.47;67.74
10462;BME280;5278;42.656;23.374;2024-01-27T02:23:53;95011.75;;;5.92;68.12
10462;BME280;5278;42.656;23.374;2024-01-27T02:26:21;95025.03;;;6.07;67.60
10462;BME280;5278;42.656;23.374;2024-01-27T02:28:48;95026.53;;;6.10;67.35
10462;BME280;5278;42.656;23.374;2024-01-27T02:31:15;95017.03;;;6.10;67.15
10462;BME280;5278;42.656;23.374;2024-01-27T02:33:41;95014.44;;;6.20;66.02
10462;BME280;5278;42.656;23.374;2024-01-27T02:36:09;95012.78;;;6.19;65.92
10462;BME280;5278;42.656;23.374;2024-01-27T02:38:36;95017.00;;;6.20;66.73
10462;BME280;5278;42.656;23.374;2024-01-27T02:41:02;95019.19;;;6.15;66.91
10462;BME280;5278;42.656;23.374;2024-01-27T02:43:30;95027.06;;;5.94;67.05
10462;BME280;5278;42.656;23.374;2024-01-27T02:45:57;95023.94;;;5.71;67.77
10462;BME280;5278;42.656;23.374;2024-01-27T02:48:24;95032.56;;;5.41;69.38
10462;BME280;5278;42.656;23.374;2024-01-27T02:50:51;95013.28;;;5.16;70.33
10462;BME280;5278;42.656;23.374;2024-01-27T02:53:18;95013.50;;;5.04;71.54
10462;BME280;5278;42.656;23.374;2024-01-27T02:55:45;95002.31;;;4.84;72.52
10462;BME280;5278;42.656;23.374;2024-01-27T02:58:11;95006.66;;;4.84;72.27
10462;BME280;5278;42.656;23.374;2024-01-27T03:00:40;95014.53;;;4.82;73.37
10462;BME280;5278;42.656;23.374;2024-01-27T03:03:06;95021.50;;;4.70;73.94
10462;BME280;5278;42.656;23.374;2024-01-27T03:05:34;95027.97;;;4.65;74.45
10462;BME280;5278;42.656;23.374;2024-01-27T03:08:00;95037.75;;;4.71;74.34
10462;BME280;5278;42.656;23.374;2024-01-27T03:10:29;95030.16;;;4.69;74.64
10462;BME280;5278;42.656;23.374;2024-01-27T03:12:56;95050.09;;;4.67;75.13
10462;BME280;5278;42.656;23.374;2024-01-27T03:15:23;95034.88;;;4.64;75.04
10462;BME280;5278;42.656;23.374;2024-01-27T03:17:52;95028.81;;;4.65;75.46
10462;BME280;5278;42.656;23.374;2024-01-27T03:20:18;95031.06;;;4.59;75.55
10462;BME280;5278;42.656;23.374;2024-01-27T03:22:45;95017.88;;;4.43;75.87
10462;BME280;5278;42.656;23.374;2024-01-27T03:25:13;95021.44;;;4.51;75.58
10462;BME280;5278;42.656;23.374;2024-01-27T03:27:39;95008.41;;;4.43;74.75
10462;BME280;5278;42.656;23.374;2024-01-27T03:30:07;95021.91;;;4.66;74.52
10462;BME280;5278;42.656;23.374;2024-01-27T03:32:35;95021.31;;;4.83;73.56
10462;BME280;5278;42.656;23.374;2024-01-27T03:35:04;95023.50;;;4.88;73.73
10462;BME280;5278;42.656;23.374;2024-01-27T03:37:31;95019.94;;;4.89;74.79
10462;BME280;5278;42.656;23.374;2024-01-27T03:39:58;94966.94;;;4.67;75.03
10462;BME280;5278;42.656;23.374;2024-01-27T03:42:25;95014.50;;;5.22;75.08
10462;BME280;5278;42.656;23.374;2024-01-27T03:44:54;95010.44;;;5.39;77.17
10462;BME280;5278;42.656;23.374;2024-01-27T03:47:21;95005.72;;;5.53;77.28
10462;BME280;5278;42.656;23.374;2024-01-27T03:49:48;94998.69;;;5.65;78.02
10462;BME280;5278;42.656;23.374;2024-01-27T03:52:16;95002.38;;;5.72;79.39
10462;BME280;5278;42.656;23.374;2024-01-27T03:54:43;94999.25;;;5.88;79.81
10462;BME280;5278;42.656;23.374;2024-01-27T03:57:10;94994.78;;;5.90;80.31
10462;BME280;5278;42.656;23.374;2024-01-27T03:59:36;95001.56;;;6.00;80.54
10462;BME280;5278;42.656;23.374;2024-01-27T04:02:04;94992.72;;;6.03;80.85
10462;BME280;5278;42.656;23.374;2024-01-27T04:04:31;95006.84;;;6.09;80.95
10462;BME280;5278;42.656;23.374;2024-01-27T04:06:57;94990.28;;;6.11;81.34
10462;BME280;5278;42.656;23.374;2024-01-27T04:09:26;94999.78;;;6.11;81.82
10462;BME280;5278;42.656;23.374;2024-01-27T04:11:53;95001.84;;;6.07;82.54
10462;BME280;5278;42.656;23.374;2024-01-27T04:14:20;95004.66;;;6.04;82.66
10462;BME280;5278;42.656;23.374;2024-01-27T04:16:47;94997.63;;;5.96;82.97
10462;BME280;5278;42.656;23.374;2024-01-27T04:19:14;94990.03;;;5.95;83.29
10462;BME280;5278;42.656;23.374;2024-01-27T04:21:40;94988.13;;;5.97;83.40
10462;BME280;5278;42.656;23.374;2024-01-27T04:24:08;94985.97;;;6.02;83.54
10462;BME280;5278;42.656;23.374;2024-01-27T04:26:36;94976.59;;;5.91;83.02
10462;BME280;5278;42.656;23.374;2024-01-27T04:29:03;94997.09;;;6.02;82.91
10462;BME280;5278;42.656;23.374;2024-01-27T04:31:30;94998.28;;;5.98;83.49
10462;BME280;5278;42.656;23.374;2024-01-27T04:33:57;95002.78;;;5.96;83.58
10462;BME280;5278;42.656;23.374;2024-01-27T04:36:27;94967.09;;;5.82;83.96
10462;BME280;5278;42.656;23.374;2024-01-27T04:38:55;95012.41;;;5.94;84.13
10462;BME280;5278;42.656;23.374;2024-01-27T04:41:22;94998.44;;;5.97;84.23
10462;BME280;5278;42.656;23.374;2024-01-27T04:43:51;94996.53;;;5.99;84.08
10462;BME280;5278;42.656;23.374;2024-01-27T04:46:18;94999.50;;;6.04;84.03
10462;BME280;5278;42.656;23.374;2024-01-27T04:48:46;94989.06;;;6.05;84.52
10462;BME280;5278;42.656;23.374;2024-01-27T04:51:13;94996.25;;;6.12;84.75
10462;BME280;5278;42.656;23.374;2024-01-27T04:53:39;94998.13;;;6.19;84.14
10462;BME280;5278;42.656;23.374;2024-01-27T04:56:07;94999.91;;;6.19;84.54
10462;BME280;5278;42.656;23.374;2024-01-27T04:58:35;94992.97;;;6.19;84.63
10462;BME280;5278;42.656;23.374;2024-01-27T05:01:04;94998.66;;;6.23;84.85
10462;BME280;5278;42.656;23.374;2024-01-27T05:03:31;94993.22;;;6.82;100.00
10462;BME280;5278;42.656;23.374;2024-01-27T05:05:58;94995.81;;;9.27;100.00
10462;BME280;5278;42.656;23.374;2024-01-27T05:08:25;94996.13;;;10.14;82.76
10462;BME280;5278;42.656;23.374;2024-01-27T05:10:52;94990.34;;;11.70;84.82
10462;BME280;5278;42.656;23.374;2024-01-27T05:13:19;94990.97;;;13.36;74.98
10462;BME280;5278;42.656;23.374;2024-01-27T05:15:46;94988.69;;;14.69;63.48
10462;BME280;5278;42.656;23.374;2024-01-27T05:18:16;94980.66;;;15.45;57.69
10462;BME280;5278;42.656;23.374;2024-01-27T05:20:42;94982.25;;;15.40;49.51
10462;BME280;5278;42.656;23.374;2024-01-27T05:23:09;94986.34;;;14.31;49.54
10462;BME280;5278;42.656;23.374;2024-01-27T05:25:36;94990.00;;;13.22;52.14
10462;BME280;5278;42.656;23.374;2024-01-27T05:28:04;94984.41;;;12.29;55.44
10462;BME280;5278;42.656;23.374;2024-01-27T05:30:31;94987.38;;;11.42;58.75
10462;BME280;5278;42.656;23.374;2024-01-27T05:32:57;95002.94;;;10.64;62.33
10462;BME280;5278;42.656;23.374;2024-01-27T05:35:25;95001.66;;;10.03;65.63
10462;BME280;5278;42.656;23.374;2024-01-27T05:37:52;95000.97;;;9.61;68.65
10462;BME280;5278;42.656;23.374;2024-01-27T05:40:21;95003.09;;;9.23;71.09
10462;BME280;5278;42.656;23.374;2024-01-27T05:42:48;95006.94;;;8.77;73.32
10462;BME280;5278;42.656;23.374;2024-01-27T05:45:15;95015.63;;;8.42;75.42
10462;BME280;5278;42.656;23.374;2024-01-27T05:47:42;95019.28;;;8.14;78.31
10462;BME280;5278;42.656;23.374;2024-01-27T05:50:10;95021.59;;;7.82;79.60
10462;BME280;5278;42.656;23.374;2024-01-27T05:52:38;95021.06;;;7.60;81.82
10462;BME280;5278;42.656;23.374;2024-01-27T05:55:06;95028.25;;;7.39;84.22
10462;BME280;5278;42.656;23.374;2024-01-27T05:57:33;95021.38;;;7.30;84.87
10462;BME280;5278;42.656;23.374;2024-01-27T06:00:00;95027.69;;;7.18;85.93
10462;BME280;5278;42.656;23.374;2024-01-27T06:02:27;95021.38;;;7.03;86.16
10462;BME280;5278;42.656;23.374;2024-01-27T06:04:54;95025.38;;;6.97;86.94
10462;BME280;5278;42.656;23.374;2024-01-27T06:07:21;95034.66;;;6.80;87.98
10462;BME280;5278;42.656;23.374;2024-01-27T06:09:49;95038.25;;;6.60;89.77
10462;BME280;5278;42.656;23.374;2024-01-27T06:12:16;95041.94;;;6.48;90.68
10462;BME280;5278;42.656;23.374;2024-01-27T06:14:43;95047.25;;;6.46;91.20
10462;BME280;5278;42.656;23.374;2024-01-27T06:17:10;95039.94;;;6.42;92.17
10462;BME280;5278;42.656;23.374;2024-01-27T06:19:37;95059.09;;;6.30;92.93
10462;BME280;5278;42.656;23.374;2024-01-27T06:22:04;95072.28;;;6.17;93.59
10462;BME280;5278;42.656;23.374;2024-01-27T06:24:31;95061.69;;;6.11;93.96
10462;BME280;5278;42.656;23.374;2024-01-27T06:27:00;95064.94;;;6.03;94.72
10462;BME280;5278;42.656;23.374;2024-01-27T06:29:27;95065.91;;;6.02;94.82
10462;BME280;5278;42.656;23.374;2024-01-27T06:31:54;95063.72;;;5.97;94.97
10462;BME280;5278;42.656;23.374;2024-01-27T06:34:21;95072.53;;;5.95;95.14
10462;BME280;5278;42.656;23.374;2024-01-27T06:36:49;95075.91;;;5.86;95.64
10462;BME280;5278;42.656;23.374;2024-01-27T06:39:16;95076.00;;;5.75;96.02
10462;BME280;5278;42.656;23.374;2024-01-27T06:41:43;95089.59;;;5.77;97.04
10462;BME280;5278;42.656;23.374;2024-01-27T06:44:11;95075.19;;;5.64;97.90
10462;BME280;5278;42.656;23.374;2024-01-27T06:46:38;95073.94;;;5.59;98.58
10462;BME280;5278;42.656;23.374;2024-01-27T06:49:04;95071.53;;;5.57;99.05
10462;BME280;5278;42.656;23.374;2024-01-27T06:51:31;95007.31;;;5.26;99.32
10462;BME280;5278;42.656;23.374;2024-01-27T06:53:58;95086.59;;;5.81;99.00
10462;BME280;5278;42.656;23.374;2024-01-27T06:56:25;95100.78;;;5.96;97.94
10462;BME280;5278;42.656;23.374;2024-01-27T06:58:51;95091.28;;;6.07;96.31
10462;BME280;5278;42.656;23.374;2024-01-27T07:01:20;95085.97;;;6.18;96.02
10462;BME280;5278;42.656;23.374;2024-01-27T07:03:47;95078.66;;;6.32;94.61
10462;BME280;5278;42.656;23.374;2024-01-27T07:06:14;95071.28;;;6.47;93.10
10462;BME280;5278;42.656;23.374;2024-01-27T07:08:41;95075.84;;;6.63;90.80
10462;BME280;5278;42.656;23.374;2024-01-27T07:11:07;95068.50;;;6.77;90.00
10462;BME280;5278;42.656;23.374;2024-01-27T07:13:34;95063.16;;;6.88;87.76
10462;BME280;5278;42.656;23.374;2024-01-27T07:16:01;95050.56;;;7.13;86.29
10462;BME280;5278;42.656;23.374;2024-01-27T07:18:29;95055.66;;;7.32;85.45
10462;BME280;5278;42.656;23.374;2024-01-27T07:20:56;95057.44;;;7.49;84.43
10462;BME280;5278;42.656;23.374;2024-01-27T07:23:24;95060.16;;;7.48;82.72
10462;BME280;5278;42.656;23.374;2024-01-27T07:25:53;95069.56;;;7.49;82.05
10462;BME280;5278;42.656;23.374;2024-01-27T07:28:20;95082.34;;;7.50;82.06
10462;BME280;5278;42.656;23.374;2024-01-27T07:30:46;95051.44;;;7.31;81.48
10462;BME280;5278;42.656;23.374;2024-01-27T07:33:13;95081.50;;;7.32;81.61
10462;BME280;5278;42.656;23.374;2024-01-27T07:35:43;95100.81;;;7.28;81.92
10462;BME280;5278;42.656;23.374;2024-01-27T07:38:10;95112.13;;;7.27;82.43
10462;BME280;5278;42.656;23.374;2024-01-27T07:40:37;95122.59;;;7.25;81.93
10462;BME280;5278;42.656;23.374;2024-01-27T07:43:04;95126.03;;;7.16;80.53
10462;BME280;5278;42.656;23.374;2024-01-27T07:45:30;95140.44;;;7.09;80.47
10462;BME280;5278;42.656;23.374;2024-01-27T07:47:58;95131.88;;;7.09;80.57
10462;BME280;5278;42.656;23.374;2024-01-27T07:50:27;95144.69;;;7.01;80.43
10462;BME280;5278;42.656;23.374;2024-01-27T07:52:55;95155.28;;;7.07;79.57
10462;BME280;5278;42.656;23.374;2024-01-27T07:55:22;95158.44;;;7.01;78.57
10462;BME280;5278;42.656;23.374;2024-01-27T07:57:49;95152.31;;;6.92;78.82
10462;BME280;5278;42.656;23.374;2024-01-27T08:00:16;95157.34;;;6.84;79.03
10462;BME280;5278;42.656;23.374;2024-01-27T08:02:43;95158.88;;;6.77;78.45
10462;BME280;5278;42.656;23.374;2024-01-27T08:05:11;95155.34;;;6.69;78.85
10462;BME280;5278;42.656;23.374;2024-01-27T08:07:38;95153.44;;;6.61;79.18
10462;BME280;5278;42.656;23.374;2024-01-27T08:10:08;95143.38;;;6.58;78.78
10462;BME280;5278;42.656;23.374;2024-01-27T08:12:36;95129.41;;;6.61;78.90
10462;BME280;5278;42.656;23.374;2024-01-27T08:15:05;95142.00;;;6.73;78.80
10462;BME280;5278;42.656;23.374;2024-01-27T08:17:32;95122.44;;;6.80;78.58
10462;BME280;5278;42.656;23.374;2024-01-27T08:19:59;95138.75;;;6.81;77.97
10462;BME280;5278;42.656;23.374;2024-01-27T08:22:25;95149.59;;;6.94;78.48
10462;BME280;5278;42.656;23.374;2024-01-27T08:24:52;95129.47;;;7.07;77.69
10462;BME280;5278;42.656;23.374;2024-01-27T08:27:21;95127.88;;;7.24;76.77
10462;BME280;5278;42.656;23.374;2024-01-27T08:29:49;95143.69;;;7.48;74.62
10462;BME280;5278;42.656;23.374;2024-01-27T08:32:18;95139.13;;;7.69;74.46
10462;BME280;5278;42.656;23.374;2024-01-27T08:34:45;95099.63;;;7.95;73.22
10462;BME280;5278;42.656;23.374;2024-01-27T08:37:15;95121.19;;;8.48;69.95
10462;BME280;5278;42.656;23.374;2024-01-27T08:39:42;95137.81;;;8.81;67.05
10462;BME280;5278;42.656;23.374;2024-01-27T08:42:09;95057.41;;;8.91;63.87
10462;BME280;5278;42.656;23.374;2024-01-27T08:44:37;95046.50;;;9.55;62.75
10462;BME280;5278;42.656;23.374;2024-01-27T08:47:05;95070.03;;;11.32;84.32
10462;BME280;5278;42.656;23.374;2024-01-27T08:49:32;95090.69;;;13.46;73.51
10462;BME280;5278;42.656;23.374;2024-01-27T08:51:58;95076.97;;;14.88;58.79
10462;BME280;5278;42.656;23.374;2024-01-27T08:54:25;95060.56;;;15.63;46.86
10462;BME280;5278;42.656;23.374;2024-01-27T08:56:52;95043.50;;;16.87;44.13
10462;BME280;5278;42.656;23.374;2024-01-27T08:59:20;95041.22;;;18.00;40.75
10462;BME280;5278;42.656;23.374;2024-01-27T09:01:49;95058.72;;;19.14;36.72
10462;BME280;5278;42.656;23.374;2024-01-27T09:04:16;95026.00;;;20.12;33.89
10462;BME280;5278;42.656;23.374;2024-01-27T09:06:43;95032.31;;;20.83;31.67
10462;BME280;5278;42.656;23.374;2024-01-27T09:09:12;95020.06;;;21.12;32.07
10462;BME280;5278;42.656;23.374;2024-01-27T09:11:38;95023.16;;;20.85;30.56
10462;BME280;5278;42.656;23.374;2024-01-27T09:14:05;95031.28;;;19.64;31.25
10462;BME280;5278;42.656;23.374;2024-01-27T09:16:33;95033.72;;;18.42;33.02
10462;BME280;5278;42.656;23.374;2024-01-27T09:19:03;95022.84;;;17.43;34.10
10462;BME280;5278;42.656;23.374;2024-01-27T09:21:30;95039.47;;;16.91;35.47
10462;BME280;5278;42.656;23.374;2024-01-27T09:23:58;95037.91;;;15.96;37.01
10462;BME280;5278;42.656;23.374;2024-01-27T09:26:26;95022.31;;;15.40;38.03
10462;BME280;5278;42.656;23.374;2024-01-27T09:28:53;95009.19;;;15.27;38.97
10462;BME280;5278;42.656;23.374;2024-01-27T09:31:21;95035.84;;;15.09;39.44
10462;BME280;5278;42.656;23.374;2024-01-27T09:33:49;95012.16;;;14.90;39.57
10462;BME280;5278;42.656;23.374;2024-01-27T09:36:18;95035.22;;;14.09;41.21
10462;BME280;5278;42.656;23.374;2024-01-27T09:38:46;95070.72;;;14.25;41.37
10462;BME280;5278;42.656;23.374;2024-01-27T09:41:13;95057.53;;;15.31;39.61
10462;BME280;5278;42.656;23.374;2024-01-27T09:43:43;95050.56;;;15.86;37.92
10462;BME280;5278;42.656;23.374;2024-01-27T09:46:10;95061.19;;;15.37;38.97
10462;BME280;5278;42.656;23.374;2024-01-27T09:48:37;95066.53;;;14.94;39.42
10462;BME280;5278;42.656;23.374;2024-01-27T09:51:05;95100.50;;;13.73;41.74
10462;BME280;5278;42.656;23.374;2024-01-27T09:53:33;95109.25;;;12.76;45.11
10462;BME280;5278;42.656;23.374;2024-01-27T09:56:00;95123.47;;;12.28;46.53
10462;BME280;5278;42.656;23.374;2024-01-27T09:58:29;95088.53;;;11.45;48.57
10462;BME280;5278;42.656;23.374;2024-01-27T10:00:57;95139.22;;;11.57;49.75
10462;BME280;5278;42.656;23.374;2024-01-27T10:03:26;95131.06;;;10.72;52.38
10462;BME280;5278;42.656;23.374;2024-01-27T10:05:55;95147.25;;;10.18;53.86
10462;BME280;5278;42.656;23.374;2024-01-27T10:08:22;95138.66;;;9.83;56.81
10462;BME280;5278;42.656;23.374;2024-01-27T10:10:54;95130.41;;;10.46;55.47
10462;BME280;5278;42.656;23.374;2024-01-27T10:13:21;95134.44;;;11.13;52.47
10462;BME280;5278;42.656;23.374;2024-01-27T10:15:59;95133.94;;;11.26;51.47
10462;BME280;5278;42.656;23.374;2024-01-27T10:18:27;95141.94;;;10.92;52.70
10462;BME280;5278;42.656;23.374;2024-01-27T10:20:54;95143.00;;;11.38;72.43
10462;BME280;5278;42.656;23.374;2024-01-27T10:23:21;95138.34;;;12.88;62.19
10462;BME280;5278;42.656;23.374;2024-01-27T10:25:51;95145.72;;;14.10;46.17
10462;BME280;5278;42.656;23.374;2024-01-27T10:28:18;95128.78;;;14.56;49.52
10462;BME280;5278;42.656;23.374;2024-01-27T10:30:45;95141.25;;;14.97;47.54
10462;BME280;5278;42.656;23.374;2024-01-27T10:33:14;95142.84;;;15.47;43.71
10462;BME280;5278;42.656;23.374;2024-01-27T10:35:40;95145.00;;;15.65;41.64
10462;BME280;5278;42.656;23.374;2024-01-27T10:38:07;95146.03;;;15.70;42.29
10462;BME280;5278;42.656;23.374;2024-01-27T10:40:35;95131.56;;;15.46;41.42
10462;BME280;5278;42.656;23.374;2024-01-27T10:43:04;95134.91;;;15.34;41.54
10462;BME280;5278;42.656;23.374;2024-01-27T10:45:35;95134.59;;;15.22;40.64
10462;BME280;5278;42.656;23.374;2024-01-27T10:48:03;95144.94;;;15.30;42.54
10462;BME280;5278;42.656;23.374;2024-01-27T10:50:34;95149.75;;;15.55;47.13
10462;BME280;5278;42.656;23.374;2024-01-27T10:53:03;95156.31;;;15.72;46.04
10462;BME280;5278;42.656;23.374;2024-01-27T10:55:32;95170.13;;;15.31;46.13
10462;BME280;5278;42.656;23.374;2024-01-27T10:58:03;95124.53;;;15.19;40.96
10462;BME280;5278;42.656;23.374;2024-01-27T11:00:31;95150.91;;;13.89;42.27
10462;BME280;5278;42.656;23.374;2024-01-27T11:02:59;95163.81;;;13.01;45.11
10462;BME280;5278;42.656;23.374;2024-01-27T11:05:28;95066.78;;;11.30;48.11
10462;BME280;5278;42.656;23.374;2024-01-27T11:07:56;95142.91;;;10.67;52.20
10462;BME280;5278;42.656;23.374;2024-01-27T11:10:25;95183.63;;;9.92;55.73
10462;BME280;5278;42.656;23.374;2024-01-27T11:13:00;95201.19;;;9.38;59.10
10462;BME280;5278;42.656;23.374;2024-01-27T11:15:29;95201.63;;;9.08;61.09
10462;BME280;5278;42.656;23.374;2024-01-27T11:17:57;95200.13;;;8.80;63.11
10462;BME280;5278;42.656;23.374;2024-01-27T11:20:27;95202.50;;;8.55;65.04
10462;BME280;5278;42.656;23.374;2024-01-27T11:22:54;95194.81;;;8.46;65.75
10462;BME280;5278;42.656;23.374;2024-01-27T11:25:23;95200.88;;;8.27;66.55
10462;BME280;5278;42.656;23.374;2024-01-27T11:27:50;95225.25;;;8.07;68.19
10462;BME280;5278;42.656;23.374;2024-01-27T11:30:25;95218.06;;;8.01;68.86
10462;BME280;5278;42.656;23.374;2024-01-27T11:32:55;95167.00;;;7.75;68.62
10462;BME280;5278;42.656;23.374;2024-01-27T11:35:22;95233.13;;;7.78;69.40
10462;BME280;5278;42.656;23.374;2024-01-27T11:37:49;95228.53;;;7.72;70.20
10462;BME280;5278;42.656;23.374;2024-01-27T11:40:16;95234.56;;;7.53;71.02
10462;BME280;5278;42.656;23.374;2024-01-27T11:42:43;95247.38;;;7.55;71.58
10462;BME280;5278;42.656;23.374;2024-01-27T11:45:11;95243.44;;;7.51;71.86
10462;BME280;5278;42.656;23.374;2024-01-27T11:47:38;95241.44;;;7.35;71.89
10462;BME280;5278;42.656;23.374;2024-01-27T11:50:07;95228.38;;;7.17;72.61
10462;BME280;5278;42.656;23.374;2024-01-27T11:52:35;95232.38;;;7.12;72.78
10462;BME280;5278;42.656;23.374;2024-01-27T11:55:04;95242.53;;;7.13;73.01
10462;BME280;5278;42.656;23.374;2024-01-27T11:57:31;95231.28;;;7.05;72.41
10462;BME280;5278;42.656;23.374;2024-01-27T11:59:57;95227.06;;;6.94;72.12
10462;BME280;5278;42.656;23.374;2024-01-27T12:02:24;95246.66;;;6.97;71.97
10462;BME280;5278;42.656;23.374;2024-01-27T12:04:51;95210.25;;;6.61;72.87
10462;BME280;5278;42.656;23.374;2024-01-27T12:07:20;95247.44;;;6.87;72.42
10462;BME280;5278;42.656;23.374;2024-01-27T12:09:49;95240.28;;;6.91;72.21
10462;BME280;5278;42.656;23.374;2024-01-27T12:12:16;95239.31;;;7.02;71.43
10462;BME280;5278;42.656;23.374;2024-01-27T12:14:45;95234.41;;;6.99;70.78
10462;BME280;5278;42.656;23.374;2024-01-27T12:17:13;95236.56;;;7.13;69.95
10462;BME280;5278;42.656;23.374;2024-01-27T12:19:46;95191.19;;;7.01;69.47
10462;BME280;5278;42.656;23.374;2024-01-27T12:22:22;95247.59;;;7.98;67.43
10462;BME280;5278;42.656;23.374;2024-01-27T12:24:51;95239.69;;;8.72;62.90
10462;BME280;5278;42.656;23.374;2024-01-27T12:27:18;95239.31;;;9.20;59.77
10462;BME280;5278;42.656;23.374;2024-01-27T12:29:47;95225.31;;;9.31;58.58
10462;BME280;5278;42.656;23.374;2024-01-27T12:32:14;95227.34;;;9.71;57.99
10462;BME280;5278;42.656;23.374;2024-01-27T12:34:41;95231.44;;;10.15;55.14
10462;BME280;5278;42.656;23.374;2024-01-27T12:37:11;95225.88;;;10.44;53.49
10462;BME280;5278;42.656;23.374;2024-01-27T12:39:41;95217.13;;;10.53;53.13
10462;BME280;5278;42.656;23.374;2024-01-27T12:42:08;95218.06;;;10.36;53.12
10462;BME280;5278;42.656;23.374;2024-01-27T12:44:35;95236.16;;;10.70;52.55
10462;BME280;5278;42.656;23.374;2024-01-27T12:47:02;95216.31;;;10.53;51.93
10462;BME280;5278;42.656;23.374;2024-01-27T12:49:29;95234.06;;;10.23;52.82
10462;BME280;5278;42.656;23.374;2024-01-27T12:51:57;95244.47;;;10.23;53.13
10462;BME280;5278;42.656;23.374;2024-01-27T12:54:24;95260.06;;;9.72;54.45
10462;BME280;5278;42.656;23.374;2024-01-27T12:56:53;95247.63;;;9.75;55.73
10462;BME280;5278;42.656;23.374;2024-01-27T12:59:23;95276.06;;;9.85;55.54
10462;BME280;5278;42.656;23.374;2024-01-27T13:01:50;95261.06;;;9.71;55.83
10462;BME280;5278;42.656;23.374;2024-01-27T13:04:18;95242.28;;;9.51;55.99
10462;BME280;5278;42.656;23.374;2024-01-27T13:06:45;95260.66;;;9.14;56.44
10462;BME280;5278;42.656;23.374;2024-01-27T13:09:12;95171.38;;;8.20;56.47